sensor_id;sensor_type;location;lat;lon;timestamp;P1;durP1;ratioP1;P2;durP2;ratioP2
59054;SDS011;44845;51.444;7.460;2022-10-22T00:00:21;5.40;;;1.73;;
59054;SDS011;44845;51.444;7.460;2022-10-22T00:02:47;5.07;;;1.70;;
59054;SDS011;44845;51.444;7.460;2022-10-22T00:05:12;6.85;;;2.00;;
59054;SDS011;44845;51.444;7.460;2022-10-22T00:07:37;7.43;;;1.77;;
59054;SDS011;44845;51.444;7.460;2022-10-22T00:10:03;10.20;;;1.73;;
59054;SDS011;44845;51.444;7.460;2022-10-22T00:12:29;5.13;;;1.73;;
59054;SDS011;44845;51.444;7.460;2022-10-22T00:14:55;6.97;;;1.75;;
59054;SDS011;44845;51.444;7.460;2022-10-22T00:17:21;3.00;;;1.50;;
59054;SDS011;44845;51.444;7.460;2022-10-22T00:19:46;4.70;;;1.65;;
59054;SDS011;44845;51.444;7.460;2022-10-22T00:22:11;10.32;;;1.73;;
59054;SDS011;44845;51.444;7.460;2022-10-22T00:24:37;5.95;;;2.17;;
59054;SDS011;44845;51.444;7.460;2022-10-22T00:27:03;11.05;;;1.70;;
59054;SDS011;44845;51.444;7.460;2022-10-22T00:29:29;3.70;;;1.50;;
59054;SDS011;44845;51.444;7.460;2022-10-22T00:31:55;9.65;;;1.55;;
59054;SDS011;44845;51.444;7.460;2022-10-22T00:34:21;4.82;;;1.67;;
59054;SDS011;44845;51.444;7.460;2022-10-22T00:36:47;8.25;;;1.98;;
59054;SDS011;44845;51.444;7.460;2022-10-22T00:39:14;9.10;;;1.75;;
59054;SDS011;44845;51.444;7.460;2022-10-22T00:41:42;4.85;;;1.60;;
59054;SDS011;44845;51.444;7.460;2022-10-22T00:47:11;9.20;;;1.65;;
59054;SDS011;44845;51.444;7.460;2022-10-22T00:49:37;9.35;;;1.70;;
59054;SDS011;44845;51.444;7.460;2022-10-22T00:52:03;6.50;;;1.85;;
59054;SDS011;44845;51.444;7.460;2022-10-22T00:54:28;5.28;;;1.83;;
59054;SDS011;44845;51.444;7.460;2022-10-22T00:56:54;8.00;;;1.58;;
59054;SDS011;44845;51.444;7.460;2022-10-22T00:59:19;10.15;;;2.05;;
59054;SDS011;44845;51.444;7.460;2022-10-22T01:01:44;5.80;;;1.92;;
59054;SDS011;44845;51.444;7.460;2022-10-22T01:04:10;5.40;;;1.52;;
59054;SDS011;44845;51.444;7.460;2022-10-22T01:06:36;3.70;;;1.55;;
59054;SDS011;44845;51.444;7.460;2022-10-22T01:09:03;6.95;;;1.70;;
59054;SDS011;44845;51.444;7.460;2022-10-22T01:14:34;7.22;;;1.60;;
59054;SDS011;44845;51.444;7.460;2022-10-22T01:22:32;2.90;;;1.65;;
59054;SDS011;44845;51.444;7.460;2022-10-22T01:27:49;7.28;;;1.67;;
59054;SDS011;44845;51.444;7.460;2022-10-22T01:30:24;4.40;;;1.88;;
59054;SDS011;44845;51.444;7.460;2022-10-22T01:32:51;9.02;;;1.90;;
59054;SDS011;44845;51.444;7.460;2022-10-22T01:35:27;4.35;;;2.00;;
59054;SDS011;44845;51.444;7.460;2022-10-22T01:37:57;9.88;;;1.75;;
59054;SDS011;44845;51.444;7.460;2022-10-22T01:40:25;10.35;;;1.98;;
59054;SDS011;44845;51.444;7.460;2022-10-22T01:42:56;5.93;;;2.15;;
59054;SDS011;44845;51.444;7.460;2022-10-22T01:45:22;13.57;;;2.00;;
59054;SDS011;44845;51.444;7.460;2022-10-22T01:51:17;7.97;;;2.10;;
59054;SDS011;44845;51.444;7.460;2022-10-22T01:54:07;2.75;;;1.60;;
59054;SDS011;44845;51.444;7.460;2022-10-22T02:04:19;8.77;;;2.15;;
59054;SDS011;44845;51.444;7.460;2022-10-22T02:06:50;5.82;;;2.03;;
59054;SDS011;44845;51.444;7.460;2022-10-22T02:09:18;6.97;;;1.75;;
59054;SDS011;44845;51.444;7.460;2022-10-22T02:11:45;7.57;;;2.30;;
59054;SDS011;44845;51.444;7.460;2022-10-22T02:14:13;9.52;;;2.53;;
59054;SDS011;44845;51.444;7.460;2022-10-22T02:16:42;5.32;;;1.98;;
59054;SDS011;44845;51.444;7.460;2022-10-22T02:19:27;4.60;;;2.03;;
59054;SDS011;44845;51.444;7.460;2022-10-22T02:21:52;8.02;;;2.20;;
59054;SDS011;44845;51.444;7.460;2022-10-22T02:24:18;9.43;;;1.88;;
59054;SDS011;44845;51.444;7.460;2022-10-22T02:26:54;12.55;;;2.30;;
59054;SDS011;44845;51.444;7.460;2022-10-22T02:29:27;6.30;;;1.58;;
59054;SDS011;44845;51.444;7.460;2022-10-22T02:32:00;3.30;;;1.77;;
59054;SDS011;44845;51.444;7.460;2022-10-22T02:34:27;10.43;;;2.17;;
59054;SDS011;44845;51.444;7.460;2022-10-22T02:36:56;5.60;;;1.85;;
59054;SDS011;44845;51.444;7.460;2022-10-22T02:39:24;10.02;;;1.92;;
59054;SDS011;44845;51.444;7.460;2022-10-22T02:41:50;11.30;;;2.17;;
59054;SDS011;44845;51.444;7.460;2022-10-22T02:44:19;7.43;;;2.30;;
59054;SDS011;44845;51.444;7.460;2022-10-22T02:46:45;5.10;;;1.80;;
59054;SDS011;44845;51.444;7.460;2022-10-22T02:49:10;8.07;;;2.15;;
59054;SDS011;44845;51.444;7.460;2022-10-22T02:51:36;6.40;;;2.33;;
59054;SDS011;44845;51.444;7.460;2022-10-22T02:54:01;8.48;;;2.15;;
59054;SDS011;44845;51.444;7.460;2022-10-22T02:56:27;10.13;;;2.50;;
59054;SDS011;44845;51.444;7.460;2022-10-22T02:58:53;10.57;;;2.40;;
59054;SDS011;44845;51.444;7.460;2022-10-22T03:01:18;5.15;;;1.83;;
59054;SDS011;44845;51.444;7.460;2022-10-22T03:03:43;8.40;;;2.08;;
59054;SDS011;44845;51.444;7.460;2022-10-22T03:06:09;6.88;;;1.95;;
59054;SDS011;44845;51.444;7.460;2022-10-22T03:08:34;5.68;;;2.20;;
59054;SDS011;44845;51.444;7.460;2022-10-22T03:10:59;10.55;;;2.45;;
59054;SDS011;44845;51.444;7.460;2022-10-22T03:13:25;6.50;;;2.08;;
59054;SDS011;44845;51.444;7.460;2022-10-22T03:15:50;6.57;;;2.33;;
59054;SDS011;44845;51.444;7.460;2022-10-22T03:18:16;9.85;;;2.55;;
59054;SDS011;44845;51.444;7.460;2022-10-22T03:20:41;11.23;;;2.03;;
59054;SDS011;44845;51.444;7.460;2022-10-22T03:23:08;11.52;;;2.08;;
59054;SDS011;44845;51.444;7.460;2022-10-22T03:25:34;4.38;;;2.10;;
59054;SDS011;44845;51.444;7.460;2022-10-22T03:28:02;8.23;;;2.17;;
59054;SDS011;44845;51.444;7.460;2022-10-22T03:30:29;6.43;;;2.20;;
59054;SDS011;44845;51.444;7.460;2022-10-22T03:32:55;7.25;;;2.20;;
59054;SDS011;44845;51.444;7.460;2022-10-22T03:35:20;5.95;;;2.03;;
59054;SDS011;44845;51.444;7.460;2022-10-22T03:37:46;6.20;;;1.80;;
59054;SDS011;44845;51.444;7.460;2022-10-22T03:40:11;12.68;;;2.25;;
59054;SDS011;44845;51.444;7.460;2022-10-22T03:42:38;8.27;;;2.10;;
59054;SDS011;44845;51.444;7.460;2022-10-22T03:45:05;9.32;;;2.33;;
59054;SDS011;44845;51.444;7.460;2022-10-22T03:47:31;5.00;;;2.20;;
59054;SDS011;44845;51.444;7.460;2022-10-22T03:49:57;5.63;;;2.22;;
59054;SDS011;44845;51.444;7.460;2022-10-22T03:52:22;13.50;;;2.42;;
59054;SDS011;44845;51.444;7.460;2022-10-22T03:54:47;7.65;;;2.15;;
59054;SDS011;44845;51.444;7.460;2022-10-22T03:57:13;5.63;;;2.25;;
59054;SDS011;44845;51.444;7.460;2022-10-22T03:59:42;5.88;;;2.20;;
59054;SDS011;44845;51.444;7.460;2022-10-22T04:02:09;7.72;;;2.75;;
59054;SDS011;44845;51.444;7.460;2022-10-22T04:04:35;9.63;;;2.95;;
59054;SDS011;44845;51.444;7.460;2022-10-22T04:07:02;9.02;;;2.60;;
59054;SDS011;44845;51.444;7.460;2022-10-22T04:09:31;7.15;;;2.50;;
59054;SDS011;44845;51.444;7.460;2022-10-22T04:11:57;10.23;;;2.67;;
59054;SDS011;44845;51.444;7.460;2022-10-22T04:14:23;9.05;;;2.90;;
59054;SDS011;44845;51.444;7.460;2022-10-22T04:16:48;9.02;;;2.45;;
59054;SDS011;44845;51.444;7.460;2022-10-22T04:19:14;5.78;;;2.25;;
59054;SDS011;44845;51.444;7.460;2022-10-22T04:21:39;13.23;;;2.38;;
59054;SDS011;44845;51.444;7.460;2022-10-22T04:24:04;9.15;;;2.85;;
59054;SDS011;44845;51.444;7.460;2022-10-22T04:26:30;5.68;;;2.80;;
59054;SDS011;44845;51.444;7.460;2022-10-22T04:28:55;6.57;;;2.40;;
59054;SDS011;44845;51.444;7.460;2022-10-22T04:31:22;11.70;;;2.92;;
59054;SDS011;44845;51.444;7.460;2022-10-22T04:33:54;5.55;;;2.58;;
59054;SDS011;44845;51.444;7.460;2022-10-22T04:36:21;9.68;;;3.25;;
59054;SDS011;44845;51.444;7.460;2022-10-22T04:38:50;8.13;;;2.78;;
59054;SDS011;44845;51.444;7.460;2022-10-22T04:41:28;9.18;;;2.80;;
59054;SDS011;44845;51.444;7.460;2022-10-22T04:43:55;8.88;;;2.88;;
59054;SDS011;44845;51.444;7.460;2022-10-22T04:46:21;10.52;;;3.00;;
59054;SDS011;44845;51.444;7.460;2022-10-22T04:48:48;7.07;;;2.80;;
59054;SDS011;44845;51.444;7.460;2022-10-22T04:51:16;4.95;;;2.42;;
59054;SDS011;44845;51.444;7.460;2022-10-22T04:53:43;9.32;;;2.63;;
59054;SDS011;44845;51.444;7.460;2022-10-22T04:56:20;9.07;;;2.88;;
59054;SDS011;44845;51.444;7.460;2022-10-22T04:58:47;5.53;;;2.97;;
59054;SDS011;44845;51.444;7.460;2022-10-22T05:03:41;7.68;;;2.38;;
59054;SDS011;44845;51.444;7.460;2022-10-22T05:06:07;6.97;;;2.28;;
59054;SDS011;44845;51.444;7.460;2022-10-22T05:08:32;9.95;;;2.95;;
59054;SDS011;44845;51.444;7.460;2022-10-22T05:10:58;7.22;;;2.58;;
59054;SDS011;44845;51.444;7.460;2022-10-22T05:13:24;8.52;;;2.70;;
59054;SDS011;44845;51.444;7.460;2022-10-22T05:15:49;5.15;;;2.72;;
59054;SDS011;44845;51.444;7.460;2022-10-22T05:18:14;8.73;;;3.30;;
59054;SDS011;44845;51.444;7.460;2022-10-22T05:20:41;6.30;;;3.13;;
59054;SDS011;44845;51.444;7.460;2022-10-22T05:23:06;6.47;;;3.10;;
59054;SDS011;44845;51.444;7.460;2022-10-22T05:25:35;5.25;;;2.65;;
59054;SDS011;44845;51.444;7.460;2022-10-22T05:28:01;6.50;;;2.90;;
59054;SDS011;44845;51.444;7.460;2022-10-22T05:30:27;8.40;;;2.90;;
59054;SDS011;44845;51.444;7.460;2022-10-22T05:32:52;6.28;;;2.80;;
59054;SDS011;44845;51.444;7.460;2022-10-22T05:35:17;9.00;;;3.10;;
59054;SDS011;44845;51.444;7.460;2022-10-22T05:37:43;9.48;;;3.33;;
59054;SDS011;44845;51.444;7.460;2022-10-22T05:40:08;7.00;;;2.90;;
59054;SDS011;44845;51.444;7.460;2022-10-22T05:42:34;7.38;;;3.35;;
59054;SDS011;44845;51.444;7.460;2022-10-22T05:44:59;12.27;;;3.22;;
59054;SDS011;44845;51.444;7.460;2022-10-22T05:47:24;11.02;;;3.50;;
59054;SDS011;44845;51.444;7.460;2022-10-22T05:49:50;7.75;;;3.10;;
59054;SDS011;44845;51.444;7.460;2022-10-22T05:52:16;6.75;;;3.13;;
59054;SDS011;44845;51.444;7.460;2022-10-22T05:54:41;8.70;;;3.22;;
59054;SDS011;44845;51.444;7.460;2022-10-22T05:57:06;9.13;;;3.42;;
59054;SDS011;44845;51.444;7.460;2022-10-22T05:59:32;11.00;;;4.05;;
59054;SDS011;44845;51.444;7.460;2022-10-22T06:01:57;10.13;;;3.38;;
59054;SDS011;44845;51.444;7.460;2022-10-22T06:04:22;11.38;;;3.58;;
59054;SDS011;44845;51.444;7.460;2022-10-22T06:06:49;12.65;;;3.63;;
59054;SDS011;44845;51.444;7.460;2022-10-22T06:09:19;7.10;;;3.30;;
59054;SDS011;44845;51.444;7.460;2022-10-22T06:11:47;7.93;;;3.60;;
59054;SDS011;44845;51.444;7.460;2022-10-22T06:14:14;8.40;;;4.00;;
59054;SDS011;44845;51.444;7.460;2022-10-22T06:16:40;5.57;;;3.35;;
59054;SDS011;44845;51.444;7.460;2022-10-22T06:19:06;10.57;;;4.20;;
59054;SDS011;44845;51.444;7.460;2022-10-22T06:21:32;8.13;;;3.58;;
59054;SDS011;44845;51.444;7.460;2022-10-22T06:23:58;9.40;;;3.47;;
59054;SDS011;44845;51.444;7.460;2022-10-22T06:26:24;6.57;;;3.20;;
59054;SDS011;44845;51.444;7.460;2022-10-22T06:28:50;9.90;;;3.47;;
59054;SDS011;44845;51.444;7.460;2022-10-22T06:31:15;5.07;;;2.80;;
59054;SDS011;44845;51.444;7.460;2022-10-22T06:33:41;5.03;;;3.25;;
59054;SDS011;44845;51.444;7.460;2022-10-22T06:38:33;6.28;;;4.03;;
59054;SDS011;44845;51.444;7.460;2022-10-22T06:41:02;10.13;;;3.58;;
59054;SDS011;44845;51.444;7.460;2022-10-22T06:43:29;10.13;;;3.83;;
59054;SDS011;44845;51.444;7.460;2022-10-22T06:45:57;4.78;;;3.65;;
59054;SDS011;44845;51.444;7.460;2022-10-22T06:48:27;6.47;;;3.72;;
59054;SDS011;44845;51.444;7.460;2022-10-22T06:50:52;9.40;;;4.03;;
59054;SDS011;44845;51.444;7.460;2022-10-22T06:53:17;8.40;;;4.20;;
59054;SDS011;44845;51.444;7.460;2022-10-22T06:55:43;12.05;;;3.50;;
59054;SDS011;44845;51.444;7.460;2022-10-22T06:58:08;12.35;;;3.53;;
59054;SDS011;44845;51.444;7.460;2022-10-22T07:00:33;6.38;;;3.97;;
59054;SDS011;44845;51.444;7.460;2022-10-22T07:02:59;5.45;;;4.00;;
59054;SDS011;44845;51.444;7.460;2022-10-22T07:05:24;7.20;;;3.60;;
59054;SDS011;44845;51.444;7.460;2022-10-22T07:07:49;6.72;;;3.33;;
59054;SDS011;44845;51.444;7.460;2022-10-22T07:10:15;8.98;;;3.70;;
59054;SDS011;44845;51.444;7.460;2022-10-22T07:12:40;8.15;;;3.95;;
59054;SDS011;44845;51.444;7.460;2022-10-22T07:15:06;9.30;;;3.80;;
59054;SDS011;44845;51.444;7.460;2022-10-22T07:17:31;7.03;;;3.88;;
59054;SDS011;44845;51.444;7.460;2022-10-22T07:19:56;7.40;;;3.63;;
59054;SDS011;44845;51.444;7.460;2022-10-22T07:22:22;13.77;;;4.10;;
59054;SDS011;44845;51.444;7.460;2022-10-22T07:24:47;7.53;;;3.60;;
59054;SDS011;44845;51.444;7.460;2022-10-22T07:27:12;7.80;;;3.60;;
59054;SDS011;44845;51.444;7.460;2022-10-22T07:29:38;9.02;;;3.70;;
59054;SDS011;44845;51.444;7.460;2022-10-22T07:32:03;14.15;;;4.28;;
59054;SDS011;44845;51.444;7.460;2022-10-22T07:34:29;10.05;;;3.70;;
59054;SDS011;44845;51.444;7.460;2022-10-22T07:36:54;9.07;;;3.17;;
59054;SDS011;44845;51.444;7.460;2022-10-22T07:39:21;5.70;;;3.15;;
59054;SDS011;44845;51.444;7.460;2022-10-22T07:41:46;10.10;;;3.22;;
59054;SDS011;44845;51.444;7.460;2022-10-22T07:44:12;9.40;;;3.42;;
59054;SDS011;44845;51.444;7.460;2022-10-22T07:46:37;6.60;;;2.95;;
59054;SDS011;44845;51.444;7.460;2022-10-22T07:49:02;11.30;;;3.05;;
59054;SDS011;44845;51.444;7.460;2022-10-22T07:51:28;7.72;;;3.50;;
59054;SDS011;44845;51.444;7.460;2022-10-22T07:53:53;6.10;;;2.95;;
59054;SDS011;44845;51.444;7.460;2022-10-22T07:56:18;7.20;;;2.85;;
59054;SDS011;44845;51.444;7.460;2022-10-22T07:58:44;9.02;;;3.40;;
59054;SDS011;44845;51.444;7.460;2022-10-22T08:01:09;6.22;;;2.97;;
59054;SDS011;44845;51.444;7.460;2022-10-22T08:03:35;7.90;;;3.00;;
59054;SDS011;44845;51.444;7.460;2022-10-22T08:06:00;6.63;;;2.78;;
59054;SDS011;44845;51.444;7.460;2022-10-22T08:08:26;7.60;;;2.95;;
59054;SDS011;44845;51.444;7.460;2022-10-22T08:10:54;6.22;;;2.75;;
59054;SDS011;44845;51.444;7.460;2022-10-22T08:13:21;10.82;;;2.53;;
59054;SDS011;44845;51.444;7.460;2022-10-22T08:15:47;5.95;;;2.58;;
59054;SDS011;44845;51.444;7.460;2022-10-22T08:18:12;10.65;;;2.67;;
59054;SDS011;44845;51.444;7.460;2022-10-22T08:20:38;6.07;;;2.53;;
59054;SDS011;44845;51.444;7.460;2022-10-22T08:23:04;11.82;;;2.63;;
59054;SDS011;44845;51.444;7.460;2022-10-22T08:25:30;9.45;;;2.38;;
59054;SDS011;44845;51.444;7.460;2022-10-22T08:27:56;12.10;;;2.30;;
59054;SDS011;44845;51.444;7.460;2022-10-22T08:30:21;9.10;;;2.33;;
59054;SDS011;44845;51.444;7.460;2022-10-22T08:32:47;11.35;;;2.35;;
59054;SDS011;44845;51.444;7.460;2022-10-22T08:35:12;4.80;;;2.15;;
59054;SDS011;44845;51.444;7.460;2022-10-22T08:37:38;10.40;;;2.30;;
59054;SDS011;44845;51.444;7.460;2022-10-22T08:40:03;8.13;;;2.10;;
59054;SDS011;44845;51.444;7.460;2022-10-22T08:45:24;8.82;;;2.38;;
59054;SDS011;44845;51.444;7.460;2022-10-22T08:50:34;6.05;;;2.08;;
59054;SDS011;44845;51.444;7.460;2022-10-22T08:53:04;9.40;;;2.60;;
59054;SDS011;44845;51.444;7.460;2022-10-22T08:55:36;16.83;;;2.17;;
59054;SDS011;44845;51.444;7.460;2022-10-22T08:58:09;13.50;;;2.40;;
59054;SDS011;44845;51.444;7.460;2022-10-22T09:01:01;12.18;;;2.50;;
59054;SDS011;44845;51.444;7.460;2022-10-22T09:03:37;7.22;;;1.90;;
59054;SDS011;44845;51.444;7.460;2022-10-22T09:06:11;7.03;;;1.95;;
59054;SDS011;44845;51.444;7.460;2022-10-22T09:08:46;8.98;;;2.08;;
59054;SDS011;44845;51.444;7.460;2022-10-22T09:11:15;14.02;;;2.17;;
59054;SDS011;44845;51.444;7.460;2022-10-22T09:13:46;12.00;;;2.40;;
59054;SDS011;44845;51.444;7.460;2022-10-22T09:16:14;11.93;;;2.55;;
59054;SDS011;44845;51.444;7.460;2022-10-22T09:21:42;7.55;;;2.08;;
59054;SDS011;44845;51.444;7.460;2022-10-22T09:24:36;10.43;;;2.35;;
59054;SDS011;44845;51.444;7.460;2022-10-22T09:27:12;8.82;;;2.28;;
59054;SDS011;44845;51.444;7.460;2022-10-22T09:29:40;8.50;;;1.83;;
59054;SDS011;44845;51.444;7.460;2022-10-22T09:32:06;10.57;;;2.25;;
59054;SDS011;44845;51.444;7.460;2022-10-22T09:34:32;9.75;;;2.20;;
59054;SDS011;44845;51.444;7.460;2022-10-22T09:37:01;14.32;;;2.13;;
59054;SDS011;44845;51.444;7.460;2022-10-22T09:39:31;11.57;;;2.30;;
59054;SDS011;44845;51.444;7.460;2022-10-22T09:41:58;7.10;;;2.10;;
59054;SDS011;44845;51.444;7.460;2022-10-22T09:44:24;6.82;;;1.95;;
59054;SDS011;44845;51.444;7.460;2022-10-22T09:46:49;7.03;;;1.90;;
59054;SDS011;44845;51.444;7.460;2022-10-22T09:49:15;9.90;;;1.98;;
59054;SDS011;44845;51.444;7.460;2022-10-22T09:51:57;10.82;;;2.15;;
59054;SDS011;44845;51.444;7.460;2022-10-22T09:54:24;8.90;;;2.30;;
59054;SDS011;44845;51.444;7.460;2022-10-22T09:57:17;9.55;;;2.20;;
59054;SDS011;44845;51.444;7.460;2022-10-22T09:59:49;8.00;;;2.05;;
59054;SDS011;44845;51.444;7.460;2022-10-22T10:02:19;8.68;;;2.47;;
59054;SDS011;44845;51.444;7.460;2022-10-22T10:04:50;9.52;;;2.00;;
59054;SDS011;44845;51.444;7.460;2022-10-22T10:07:19;14.10;;;1.88;;
59054;SDS011;44845;51.444;7.460;2022-10-22T10:09:49;13.65;;;2.20;;
59054;SDS011;44845;51.444;7.460;2022-10-22T10:23:18;8.02;;;2.50;;
59054;SDS011;44845;51.444;7.460;2022-10-22T10:37:00;12.60;;;1.88;;
59054;SDS011;44845;51.444;7.460;2022-10-22T10:39:42;11.23;;;1.65;;
59054;SDS011;44845;51.444;7.460;2022-10-22T10:45:16;4.35;;;1.58;;
59054;SDS011;44845;51.444;7.460;2022-10-22T10:53:29;5.75;;;1.40;;
59054;SDS011;44845;51.444;7.460;2022-10-22T10:58:52;10.70;;;1.60;;
59054;SDS011;44845;51.444;7.460;2022-10-22T11:01:41;9.13;;;1.27;;
59054;SDS011;44845;51.444;7.460;2022-10-22T11:06:57;3.42;;;1.23;;
59054;SDS011;44845;51.444;7.460;2022-10-22T11:09:29;4.25;;;1.25;;
59054;SDS011;44845;51.444;7.460;2022-10-22T11:12:09;4.85;;;1.45;;
59054;SDS011;44845;51.444;7.460;2022-10-22T11:17:40;11.38;;;1.30;;
59054;SDS011;44845;51.444;7.460;2022-10-22T11:20:13;6.68;;;1.35;;
59054;SDS011;44845;51.444;7.460;2022-10-22T11:22:45;9.93;;;1.35;;
59054;SDS011;44845;51.444;7.460;2022-10-22T11:25:26;5.50;;;1.20;;
59054;SDS011;44845;51.444;7.460;2022-10-22T11:27:56;7.85;;;1.08;;
59054;SDS011;44845;51.444;7.460;2022-10-22T11:30:36;3.22;;;1.02;;
59054;SDS011;44845;51.444;7.460;2022-10-22T11:33:05;7.85;;;1.15;;
59054;SDS011;44845;51.444;7.460;2022-10-22T11:35:40;4.72;;;1.23;;
59054;SDS011;44845;51.444;7.460;2022-10-22T11:38:09;12.88;;;1.58;;
59054;SDS011;44845;51.444;7.460;2022-10-22T11:43:55;10.13;;;1.23;;
59054;SDS011;44845;51.444;7.460;2022-10-22T11:46:46;10.95;;;1.00;;
59054;SDS011;44845;51.444;7.460;2022-10-22T11:49:24;9.35;;;1.08;;
59054;SDS011;44845;51.444;7.460;2022-10-22T11:52:21;10.43;;;1.02;;
59054;SDS011;44845;51.444;7.460;2022-10-22T11:54:49;4.60;;;0.90;;
59054;SDS011;44845;51.444;7.460;2022-10-22T11:57:20;5.43;;;1.02;;
59054;SDS011;44845;51.444;7.460;2022-10-22T11:59:51;10.68;;;1.30;;
59054;SDS011;44845;51.444;7.460;2022-10-22T12:07:54;9.23;;;1.17;;
59054;SDS011;44845;51.444;7.460;2022-10-22T12:10:26;7.22;;;1.35;;
59054;SDS011;44845;51.444;7.460;2022-10-22T12:13:01;6.40;;;0.75;;
59054;SDS011;44845;51.444;7.460;2022-10-22T12:15:35;5.68;;;0.90;;
59054;SDS011;44845;51.444;7.460;2022-10-22T12:18:15;7.05;;;1.00;;
59054;SDS011;44845;51.444;7.460;2022-10-22T12:20:41;3.47;;;0.77;;
59054;SDS011;44845;51.444;7.460;2022-10-22T12:23:08;7.63;;;0.88;;
59054;SDS011;44845;51.444;7.460;2022-10-22T12:25:35;8.38;;;1.17;;
59054;SDS011;44845;51.444;7.460;2022-10-22T12:28:02;5.35;;;0.80;;
59054;SDS011;44845;51.444;7.460;2022-10-22T12:30:33;6.47;;;0.93;;
59054;SDS011;44845;51.444;7.460;2022-10-22T12:33:00;5.32;;;0.75;;
59054;SDS011;44845;51.444;7.460;2022-10-22T12:35:31;4.97;;;0.95;;
59054;SDS011;44845;51.444;7.460;2022-10-22T12:38:10;4.47;;;1.05;;
59054;SDS011;44845;51.444;7.460;2022-10-22T12:40:40;3.35;;;0.75;;
59054;SDS011;44845;51.444;7.460;2022-10-22T12:43:13;9.02;;;1.02;;
59054;SDS011;44845;51.444;7.460;2022-10-22T12:45:39;8.50;;;1.15;;
59054;SDS011;44845;51.444;7.460;2022-10-22T12:48:13;6.05;;;0.85;;
59054;SDS011;44845;51.444;7.460;2022-10-22T12:50:48;2.28;;;0.75;;
59054;SDS011;44845;51.444;7.460;2022-10-22T12:53:21;5.55;;;0.90;;
59054;SDS011;44845;51.444;7.460;2022-10-22T12:55:50;4.50;;;0.77;;
59054;SDS011;44845;51.444;7.460;2022-10-22T12:58:19;9.38;;;1.10;;
59054;SDS011;44845;51.444;7.460;2022-10-22T13:00:46;8.85;;;1.38;;
59054;SDS011;44845;51.444;7.460;2022-10-22T13:03:34;5.30;;;1.00;;
59054;SDS011;44845;51.444;7.460;2022-10-22T13:08:54;6.40;;;0.82;;
59054;SDS011;44845;51.444;7.460;2022-10-22T13:11:19;5.88;;;1.00;;
59054;SDS011;44845;51.444;7.460;2022-10-22T13:13:45;5.45;;;0.90;;
59054;SDS011;44845;51.444;7.460;2022-10-22T13:16:15;8.02;;;1.00;;
59054;SDS011;44845;51.444;7.460;2022-10-22T13:18:45;4.82;;;1.02;;
59054;SDS011;44845;51.444;7.460;2022-10-22T13:24:03;6.68;;;1.15;;
59054;SDS011;44845;51.444;7.460;2022-10-22T13:29:16;6.60;;;0.85;;
59054;SDS011;44845;51.444;7.460;2022-10-22T13:31:45;8.27;;;1.10;;
59054;SDS011;44845;51.444;7.460;2022-10-22T13:34:13;4.70;;;1.10;;
59054;SDS011;44845;51.444;7.460;2022-10-22T13:36:49;4.30;;;0.75;;
59054;SDS011;44845;51.444;7.460;2022-10-22T13:39:19;6.82;;;1.25;;
59054;SDS011;44845;51.444;7.460;2022-10-22T13:41:46;7.10;;;1.27;;
59054;SDS011;44845;51.444;7.460;2022-10-22T13:44:14;10.15;;;1.30;;
59054;SDS011;44845;51.444;7.460;2022-10-22T13:46:39;8.18;;;1.05;;
59054;SDS011;44845;51.444;7.460;2022-10-22T13:49:09;11.15;;;1.23;;
59054;SDS011;44845;51.444;7.460;2022-10-22T13:51:39;10.63;;;1.20;;
59054;SDS011;44845;51.444;7.460;2022-10-22T13:54:07;7.80;;;1.08;;
59054;SDS011;44845;51.444;7.460;2022-10-22T13:56:37;7.00;;;0.95;;
59054;SDS011;44845;51.444;7.460;2022-10-22T13:59:02;7.50;;;0.73;;
59054;SDS011;44845;51.444;7.460;2022-10-22T14:01:28;9.65;;;0.90;;
59054;SDS011;44845;51.444;7.460;2022-10-22T14:03:54;12.35;;;0.90;;
59054;SDS011;44845;51.444;7.460;2022-10-22T14:06:23;5.07;;;0.88;;
59054;SDS011;44845;51.444;7.460;2022-10-22T14:08:52;9.35;;;1.17;;
59054;SDS011;44845;51.444;7.460;2022-10-22T14:11:22;10.18;;;0.98;;
59054;SDS011;44845;51.444;7.460;2022-10-22T14:13:47;1.77;;;0.65;;
59054;SDS011;44845;51.444;7.460;2022-10-22T14:16:15;13.18;;;0.93;;
59054;SDS011;44845;51.444;7.460;2022-10-22T14:18:44;9.68;;;1.40;;
59054;SDS011;44845;51.444;7.460;2022-10-22T14:21:10;6.70;;;0.88;;
59054;SDS011;44845;51.444;7.460;2022-10-22T14:23:37;5.97;;;1.02;;
59054;SDS011;44845;51.444;7.460;2022-10-22T14:26:04;11.10;;;1.08;;
59054;SDS011;44845;51.444;7.460;2022-10-22T14:28:31;5.43;;;0.70;;
59054;SDS011;44845;51.444;7.460;2022-10-22T14:30:57;4.63;;;0.85;;
59054;SDS011;44845;51.444;7.460;2022-10-22T14:33:27;4.07;;;0.90;;
59054;SDS011;44845;51.444;7.460;2022-10-22T14:35:54;3.33;;;0.70;;
59054;SDS011;44845;51.444;7.460;2022-10-22T14:38:20;7.85;;;1.00;;
59054;SDS011;44845;51.444;7.460;2022-10-22T14:40:45;7.57;;;0.82;;
59054;SDS011;44845;51.444;7.460;2022-10-22T14:43:32;3.85;;;0.82;;
59054;SDS011;44845;51.444;7.460;2022-10-22T14:45:57;4.38;;;0.80;;
59054;SDS011;44845;51.444;7.460;2022-10-22T14:48:23;7.05;;;0.80;;
59054;SDS011;44845;51.444;7.460;2022-10-22T14:50:48;8.45;;;0.68;;
59054;SDS011;44845;51.444;7.460;2022-10-22T14:53:14;4.75;;;0.75;;
59054;SDS011;44845;51.444;7.460;2022-10-22T14:55:40;6.55;;;1.02;;
59054;SDS011;44845;51.444;7.460;2022-10-22T14:58:08;3.53;;;0.73;;
59054;SDS011;44845;51.444;7.460;2022-10-22T15:00:34;4.53;;;0.63;;
59054;SDS011;44845;51.444;7.460;2022-10-22T15:03:00;7.70;;;1.13;;
59054;SDS011;44845;51.444;7.460;2022-10-22T15:05:26;17.23;;;0.80;;
59054;SDS011;44845;51.444;7.460;2022-10-22T15:07:52;6.38;;;0.90;;
59054;SDS011;44845;51.444;7.460;2022-10-22T15:10:17;6.70;;;0.98;;
59054;SDS011;44845;51.444;7.460;2022-10-22T15:12:42;6.55;;;0.85;;
59054;SDS011;44845;51.444;7.460;2022-10-22T15:15:08;13.55;;;1.00;;
59054;SDS011;44845;51.444;7.460;2022-10-22T15:17:33;7.13;;;0.90;;
59054;SDS011;44845;51.444;7.460;2022-10-22T15:19:59;5.85;;;0.75;;
59054;SDS011;44845;51.444;7.460;2022-10-22T15:22:28;3.03;;;0.73;;
59054;SDS011;44845;51.444;7.460;2022-10-22T15:24:55;3.58;;;0.80;;
59054;SDS011;44845;51.444;7.460;2022-10-22T15:27:21;6.85;;;0.80;;
59054;SDS011;44845;51.444;7.460;2022-10-22T15:29:46;6.20;;;1.00;;
59054;SDS011;44845;51.444;7.460;2022-10-22T15:32:12;9.55;;;1.25;;
59054;SDS011;44845;51.444;7.460;2022-10-22T15:34:37;4.68;;;0.75;;
59054;SDS011;44845;51.444;7.460;2022-10-22T15:37:04;3.67;;;0.80;;
59054;SDS011;44845;51.444;7.460;2022-10-22T15:39:37;8.82;;;1.15;;
59054;SDS011;44845;51.444;7.460;2022-10-22T15:42:03;5.18;;;0.93;;
59054;SDS011;44845;51.444;7.460;2022-10-22T15:44:29;4.70;;;0.90;;
59054;SDS011;44845;51.444;7.460;2022-10-22T15:46:55;3.58;;;0.77;;
59054;SDS011;44845;51.444;7.460;2022-10-22T15:49:24;4.88;;;1.10;;
59054;SDS011;44845;51.444;7.460;2022-10-22T15:51:51;4.78;;;1.42;;
59054;SDS011;44845;51.444;7.460;2022-10-22T15:54:21;7.97;;;1.40;;
59054;SDS011;44845;51.444;7.460;2022-10-22T15:56:49;7.72;;;1.65;;
59054;SDS011;44845;51.444;7.460;2022-10-22T15:59:15;5.72;;;1.67;;
59054;SDS011;44845;51.444;7.460;2022-10-22T16:01:41;4.90;;;0.95;;
59054;SDS011;44845;51.444;7.460;2022-10-22T16:04:07;7.50;;;1.52;;
59054;SDS011;44845;51.444;7.460;2022-10-22T16:09:03;2.60;;;1.05;;
59054;SDS011;44845;51.444;7.460;2022-10-22T16:11:30;5.40;;;1.45;;
59054;SDS011;44845;51.444;7.460;2022-10-22T16:13:57;5.57;;;1.60;;
59054;SDS011;44845;51.444;7.460;2022-10-22T16:16:24;6.95;;;1.10;;
59054;SDS011;44845;51.444;7.460;2022-10-22T16:18:51;3.83;;;1.08;;
59054;SDS011;44845;51.444;7.460;2022-10-22T16:21:18;7.18;;;1.30;;
59054;SDS011;44845;51.444;7.460;2022-10-22T16:23:44;3.53;;;1.10;;
59054;SDS011;44845;51.444;7.460;2022-10-22T16:26:10;6.78;;;1.15;;
59054;SDS011;44845;51.444;7.460;2022-10-22T16:28:37;6.85;;;1.40;;